createdAt,value
2022-08-03T00:00:24.290Z,15.76
2022-08-03T00:02:51.116Z,15.78
2022-08-03T00:05:17.737Z,15.80
2022-08-03T00:07:44.272Z,15.81
2022-08-03T00:10:12.713Z,15.78
2022-08-03T00:12:39.353Z,15.76
2022-08-03T00:15:08.298Z,15.78
2022-08-03T00:17:52.676Z,15.82
2022-08-03T00:20:23.536Z,15.82
2022-08-03T00:22:50.409Z,15.85
2022-08-03T00:25:17.789Z,15.90
2022-08-03T00:27:44.305Z,15.93
2022-08-03T00:30:11.456Z,15.98
2022-08-03T00:32:38.862Z,16.01
2022-08-03T00:35:27.366Z,16.00
2022-08-03T00:37:58.916Z,16.01
2022-08-03T00:40:26.088Z,16.05
2022-08-03T00:42:58.779Z,16.07
2022-08-03T00:45:28.096Z,16.08
2022-08-03T00:47:55.301Z,16.08
2022-08-03T00:50:24.194Z,16.13
2022-08-03T00:52:53.972Z,16.13
2022-08-03T00:55:21.003Z,16.11
2022-08-03T00:57:48.196Z,16.11
2022-08-03T01:00:18.385Z,16.17
2022-08-03T01:02:45.165Z,16.22
2022-08-03T01:05:12.166Z,16.26
2022-08-03T01:07:47.851Z,16.26
2022-08-03T01:10:38.689Z,16.27
2022-08-03T01:14:03.537Z,16.27
2022-08-03T01:16:25.825Z,16.28
2022-08-03T01:19:29.591Z,16.33
2022-08-03T01:22:24.154Z,16.37
2022-08-03T01:25:14.695Z,16.39
2022-08-03T01:28:18.676Z,16.38
2022-08-03T01:30:47.648Z,16.39
2022-08-03T01:33:20.307Z,16.37
2022-08-03T01:36:13.171Z,16.28
2022-08-03T01:38:44.810Z,16.23
2022-08-03T01:41:18.854Z,16.19
2022-08-03T01:44:26.792Z,16.22
2022-08-03T01:46:38.477Z,16.28
2022-08-03T01:49:09.694Z,16.32
2022-08-03T01:51:57.907Z,16.35
2022-08-03T01:54:26.476Z,16.37
2022-08-03T01:56:55.600Z,16.39
2022-08-03T01:59:22.649Z,16.36
2022-08-03T02:02:29.098Z,16.36
2022-08-03T02:04:39.119Z,16.37
2022-08-03T02:07:07.906Z,16.39
2022-08-03T02:09:37.111Z,16.40
2022-08-03T02:12:07.462Z,16.41
2022-08-03T02:14:34.932Z,16.44
2022-08-03T02:17:01.969Z,16.46
2022-08-03T02:19:35.266Z,16.47
2022-08-03T02:22:03.733Z,16.49
2022-08-03T02:24:31.988Z,16.54
2022-08-03T02:26:59.899Z,16.56
2022-08-03T02:29:39.262Z,16.56
2022-08-03T02:32:10.743Z,16.57
2022-08-03T02:34:40.168Z,16.58
2022-08-03T02:37:10.307Z,16.58
2022-08-03T02:39:39.141Z,16.55
2022-08-03T02:42:09.021Z,16.55
2022-08-03T02:44:37.667Z,16.57
2022-08-03T02:47:08.149Z,16.56
2022-08-03T02:49:50.085Z,16.54
2022-08-03T02:52:21.582Z,16.52
2022-08-03T02:54:51.249Z,16.55
2022-08-03T02:57:19.938Z,16.57
2022-08-03T02:59:47.280Z,16.53
2022-08-03T03:02:16.206Z,16.52
2022-08-03T03:05:52.793Z,16.45
2022-08-03T03:07:31.393Z,16.48
2022-08-03T03:10:07.751Z,16.47
2022-08-03T03:12:37.126Z,16.45
2022-08-03T03:15:06.594Z,16.42
2022-08-03T03:17:35.148Z,16.41
2022-08-03T03:20:02.955Z,16.38
2022-08-03T03:22:31.234Z,16.39
2022-08-03T03:24:58.035Z,16.36
2022-08-03T03:27:25.494Z,16.36
2022-08-03T03:29:54.153Z,16.37
2022-08-03T03:32:20.760Z,16.37
2022-08-03T03:34:48.139Z,16.39
2022-08-03T03:37:14.729Z,16.40
2022-08-03T03:39:41.345Z,16.43
2022-08-03T03:42:07.936Z,16.43
2022-08-03T03:44:34.565Z,16.43
2022-08-03T03:47:01.128Z,16.40
2022-08-03T03:49:27.892Z,16.39
2022-08-03T03:51:55.927Z,16.39
2022-08-03T03:54:22.555Z,16.40
2022-08-03T03:56:52.335Z,16.41
2022-08-03T03:59:19.032Z,16.37
2022-08-03T04:01:45.901Z,16.34
2022-08-03T04:04:31.091Z,16.32
2022-08-03T04:07:16.254Z,16.29
2022-08-03T04:10:08.850Z,16.30
2022-08-03T04:12:50.263Z,16.29
2022-08-03T04:15:21.057Z,16.24
2022-08-03T04:17:50.311Z,16.20
2022-08-03T04:20:21.532Z,16.25
2022-08-03T04:22:52.968Z,16.27
2022-08-03T04:25:22.903Z,16.27
2022-08-03T04:28:21.004Z,16.23
2022-08-03T04:30:47.507Z,16.21
2022-08-03T04:33:16.491Z,16.21
2022-08-03T04:36:01.462Z,16.26
2022-08-03T04:38:31.742Z,16.30
2022-08-03T04:40:59.904Z,16.33
2022-08-03T04:43:27.743Z,16.34
2022-08-03T04:45:54.861Z,16.32
2022-08-03T04:48:21.749Z,16.36
2022-08-03T04:50:48.625Z,16.36
2022-08-03T04:53:16.545Z,16.27
2022-08-03T04:55:43.239Z,16.15
2022-08-03T04:58:09.907Z,16.13
2022-08-03T05:00:36.528Z,16.15
2022-08-03T05:03:03.094Z,16.15
2022-08-03T05:05:48.962Z,16.06
2022-08-03T05:08:16.345Z,16.08
2022-08-03T05:10:47.735Z,16.06
2022-08-03T05:13:14.645Z,16.06
2022-08-03T05:15:43.227Z,16.10
2022-08-03T05:18:13.841Z,16.09
2022-08-03T05:20:41.178Z,16.05
2022-08-03T05:23:07.880Z,16.10
2022-08-03T05:25:34.459Z,16.14
2022-08-03T05:28:01.436Z,16.23
2022-08-03T05:30:33.372Z,16.27
2022-08-03T05:33:02.152Z,16.31
2022-08-03T05:36:02.097Z,16.33
2022-08-03T05:38:24.108Z,16.35
2022-08-03T05:40:57.503Z,16.32
2022-08-03T05:43:43.079Z,16.34
2022-08-03T05:46:13.061Z,16.36
2022-08-03T05:48:40.128Z,16.36
2022-08-03T05:51:07.850Z,16.43
2022-08-03T05:53:34.935Z,16.43
2022-08-03T05:56:13.174Z,16.40
2022-08-03T05:58:42.125Z,16.42
2022-08-03T06:01:08.817Z,16.47
2022-08-03T06:03:35.422Z,16.52
2022-08-03T06:06:02.018Z,16.46
2022-08-03T06:08:28.594Z,16.45
2022-08-03T06:10:55.110Z,16.48
2022-08-03T06:13:22.073Z,16.50
2022-08-03T06:15:48.760Z,16.54
2022-08-03T06:18:15.324Z,16.60
2022-08-03T06:20:41.852Z,16.71
2022-08-03T06:23:08.385Z,16.78
2022-08-03T06:25:43.194Z,16.80
2022-08-03T06:28:18.960Z,16.87
2022-08-03T06:30:51.047Z,16.98
2022-08-03T06:33:17.614Z,17.01
2022-08-03T06:35:44.717Z,17.03
2022-08-03T06:38:13.032Z,17.13
2022-08-03T06:40:42.583Z,17.21
2022-08-03T06:43:12.704Z,17.25
2022-08-03T06:45:39.465Z,17.33
2022-08-03T06:48:06.173Z,17.41
2022-08-03T06:50:34.131Z,17.48
2022-08-03T06:53:01.327Z,17.57
2022-08-03T06:55:28.498Z,17.66
2022-08-03T06:57:55.172Z,17.75
2022-08-03T07:00:26.452Z,17.82
2022-08-03T07:02:57.950Z,17.93
2022-08-03T07:05:25.002Z,18.04
2022-08-03T07:07:54.367Z,18.10
2022-08-03T07:10:20.880Z,18.20
2022-08-03T07:12:56.097Z,18.32
2022-08-03T07:15:54.062Z,18.42
2022-08-03T07:18:10.286Z,18.51
2022-08-03T07:20:36.803Z,18.60
2022-08-03T07:23:03.460Z,18.76
2022-08-03T07:25:30.018Z,18.86
2022-08-03T07:27:56.563Z,19.00
2022-08-03T07:30:24.821Z,19.21
2022-08-03T07:32:51.417Z,19.42
2022-08-03T07:35:24.673Z,19.57
2022-08-03T07:37:55.057Z,19.74
2022-08-03T07:40:22.545Z,19.84
2022-08-03T07:42:53.291Z,19.96
2022-08-03T07:45:23.340Z,20.07
2022-08-03T07:47:53.182Z,20.26
2022-08-03T07:50:21.320Z,20.38
2022-08-03T07:52:48.190Z,20.42
2022-08-03T07:55:15.546Z,20.54
2022-08-03T07:57:42.267Z,20.68
2022-08-03T08:00:18.279Z,20.79
2022-08-03T08:02:45.266Z,20.86
2022-08-03T08:05:12.677Z,20.91
2022-08-03T08:07:39.903Z,21.07
2022-08-03T08:10:08.404Z,21.18
2022-08-03T08:12:35.098Z,21.26
2022-08-03T08:15:02.039Z,21.35
2022-08-03T08:17:28.669Z,21.43
2022-08-03T08:19:55.293Z,21.58
2022-08-03T08:22:30.271Z,21.66
2022-08-03T08:24:57.744Z,21.77
2022-08-03T08:27:24.248Z,21.87
2022-08-03T08:29:54.561Z,21.93
2022-08-03T08:32:23.208Z,21.91
2022-08-03T08:34:49.729Z,21.93
2022-08-03T08:37:16.499Z,21.99
2022-08-03T08:39:43.077Z,22.03
2022-08-03T08:42:10.285Z,22.09
2022-08-03T08:44:36.993Z,22.12
2022-08-03T08:47:04.647Z,22.13
2022-08-03T08:49:33.120Z,22.13
2022-08-03T08:52:01.335Z,22.17
2022-08-03T08:54:29.694Z,22.14
2022-08-03T08:57:01.938Z,22.14
2022-08-03T08:59:48.689Z,22.18
2022-08-03T09:02:16.279Z,22.21
2022-08-03T09:04:43.154Z,22.28
2022-08-03T09:07:19.975Z,22.37
2022-08-03T09:10:10.889Z,22.41
2022-08-03T09:12:45.048Z,22.47
2022-08-03T09:15:31.358Z,22.50
2022-08-03T09:18:00.245Z,22.60
2022-08-03T09:20:28.476Z,22.62
2022-08-03T09:23:13.183Z,22.73
2022-08-03T09:25:58.248Z,22.82
2022-08-03T09:28:59.916Z,22.88
2022-08-03T09:31:30.526Z,22.92
2022-08-03T09:34:01.077Z,22.98
2022-08-03T09:36:47.017Z,23.04
2022-08-03T09:39:16.645Z,23.15
2022-08-03T09:41:48.459Z,23.25
2022-08-03T09:44:24.281Z,23.37
2022-08-03T09:46:55.923Z,23.43
2022-08-03T09:49:23.081Z,23.55
2022-08-03T09:52:31.325Z,23.51
2022-08-03T09:54:36.598Z,23.45
2022-08-03T09:57:03.317Z,23.44
2022-08-03T09:59:33.342Z,23.39
2022-08-03T10:02:01.898Z,23.36
2022-08-03T10:04:29.208Z,23.42
2022-08-03T10:07:07.201Z,23.49
2022-08-03T10:09:33.960Z,23.54
2022-08-03T10:12:13.930Z,23.55
2022-08-03T10:14:42.167Z,23.48
2022-08-03T10:17:09.794Z,23.45
2022-08-03T10:19:36.643Z,23.44
2022-08-03T10:22:10.524Z,23.41
2022-08-03T10:24:39.360Z,23.43
2022-08-03T10:27:07.308Z,23.44
2022-08-03T10:29:38.884Z,23.52
2022-08-03T10:32:19.189Z,23.66
2022-08-03T10:34:48.643Z,23.76
2022-08-03T10:37:17.475Z,23.86
2022-08-03T10:39:53.524Z,24.02
2022-08-03T10:42:24.679Z,24.13
2022-08-03T10:45:16.077Z,24.20
2022-08-03T10:47:42.890Z,24.29
2022-08-03T10:50:10.069Z,24.32
2022-08-03T10:52:41.297Z,24.38
2022-08-03T10:55:57.318Z,24.48
2022-08-03T10:58:37.215Z,24.65
2022-08-03T11:01:08.283Z,24.75
2022-08-03T11:03:54.771Z,24.75
2022-08-03T11:06:24.630Z,24.68
2022-08-03T11:09:11.062Z,24.53
2022-08-03T11:11:38.816Z,24.46
2022-08-03T11:14:08.129Z,24.47
2022-08-03T11:16:47.250Z,24.64
2022-08-03T11:19:22.487Z,24.74
2022-08-03T11:21:49.266Z,24.75
2022-08-03T11:24:51.276Z,24.61
2022-08-03T11:27:19.656Z,24.57
2022-08-03T11:30:06.596Z,24.48
2022-08-03T11:32:46.834Z,24.42
2022-08-03T11:35:43.849Z,24.41
2022-08-03T11:38:11.538Z,24.45
2022-08-03T11:40:42.958Z,24.49
2022-08-03T11:43:31.038Z,24.54
2022-08-03T11:46:02.442Z,24.65
2022-08-03T11:48:45.283Z,24.72
2022-08-03T11:51:20.836Z,24.77
2022-08-03T11:53:47.907Z,24.80
2022-08-03T11:56:14.545Z,24.84
2022-08-03T11:59:17.702Z,24.88
2022-08-03T12:01:35.590Z,24.91
2022-08-03T12:04:05.898Z,24.87
2022-08-03T12:06:54.994Z,24.86
2022-08-03T12:09:22.009Z,24.87
2022-08-03T12:12:00.335Z,24.87
2022-08-03T12:14:49.199Z,24.76
2022-08-03T12:17:16.333Z,24.73
2022-08-03T12:19:43.894Z,24.73
2022-08-03T12:22:10.568Z,24.69
2022-08-03T12:24:46.787Z,24.68
2022-08-03T12:27:23.460Z,24.71
2022-08-03T12:29:57.310Z,24.75
2022-08-03T12:32:26.863Z,24.75
2022-08-03T12:34:53.450Z,24.72
2022-08-03T12:37:23.021Z,24.81
2022-08-03T12:40:02.835Z,24.97
2022-08-03T12:42:38.477Z,25.08
2022-08-03T12:45:25.074Z,25.13
2022-08-03T12:47:59.184Z,25.22
2022-08-03T12:50:27.158Z,25.23
2022-08-03T12:52:54.136Z,25.27
2022-08-03T12:55:22.269Z,25.38
2022-08-03T12:57:49.482Z,25.41
2022-08-03T13:00:21.606Z,25.52
2022-08-03T13:03:39.686Z,25.58
2022-08-03T13:05:51.627Z,25.65
2022-08-03T13:08:23.243Z,25.71
2022-08-03T13:10:50.268Z,25.69
2022-08-03T13:13:16.895Z,25.63
2022-08-03T13:15:48.133Z,25.79
2022-08-03T13:18:17.265Z,25.88
2022-08-03T13:20:44.322Z,25.83
2022-08-03T13:23:13.910Z,25.92
2022-08-03T13:25:54.401Z,26.05
2022-08-03T13:28:22.793Z,25.99
2022-08-03T13:30:49.538Z,25.91
2022-08-03T13:33:16.155Z,25.83
2022-08-03T13:35:42.709Z,25.70
2022-08-03T13:38:09.275Z,25.59
2022-08-03T13:40:41.474Z,25.45
2022-08-03T13:43:08.595Z,25.32
2022-08-03T13:45:35.154Z,25.19
2022-08-03T13:48:01.780Z,25.06
2022-08-03T13:50:28.358Z,25.02
2022-08-03T13:52:54.901Z,25.06
2022-08-03T13:55:21.413Z,25.08
2022-08-03T13:58:06.664Z,25.14
2022-08-03T14:00:35.958Z,25.35
2022-08-03T14:03:13.288Z,25.51
2022-08-03T14:05:41.881Z,25.65
2022-08-03T14:08:09.113Z,25.77
2022-08-03T14:10:37.716Z,25.84
2022-08-03T14:13:05.129Z,25.93
2022-08-03T14:15:31.734Z,26.00
2022-08-03T14:17:58.997Z,25.90
2022-08-03T14:20:37.359Z,25.90
2022-08-03T14:23:06.854Z,25.86
2022-08-03T14:25:44.464Z,25.86
2022-08-03T14:28:23.224Z,26.04
2022-08-03T14:30:54.715Z,26.16
2022-08-03T14:33:21.742Z,26.25
2022-08-03T14:35:48.772Z,26.22
2022-08-03T14:38:15.867Z,26.23
2022-08-03T14:40:42.836Z,26.30
2022-08-03T14:43:09.747Z,26.32
2022-08-03T14:45:36.440Z,26.41
2022-08-03T14:50:32.571Z,26.46
2022-08-03T14:50:52.838Z,26.46
2022-08-03T14:53:19.884Z,26.50
2022-08-03T14:55:50.825Z,26.62
2022-08-03T14:58:26.048Z,26.64
2022-08-03T15:00:54.177Z,26.70
2022-08-03T15:03:23.865Z,26.72
2022-08-03T15:05:55.567Z,26.63
2022-08-03T15:08:23.785Z,26.65
2022-08-03T15:10:50.885Z,26.66
2022-08-03T15:13:18.611Z,26.67
2022-08-03T15:15:45.718Z,26.53
2022-08-03T15:18:12.440Z,26.38
2022-08-03T15:20:44.858Z,26.27
2022-08-03T15:23:14.281Z,26.32
2022-08-03T15:26:06.493Z,26.31
2022-08-03T15:28:27.688Z,26.34
2022-08-03T15:30:54.751Z,26.45
2022-08-03T15:33:21.689Z,26.54
2022-08-03T15:35:48.386Z,26.60
2022-08-03T15:38:15.228Z,26.63
2022-08-03T15:40:42.009Z,26.68
2022-08-03T15:43:09.001Z,26.62
2022-08-03T15:45:36.354Z,26.61
2022-08-03T15:48:04.944Z,26.66
2022-08-03T15:50:31.535Z,26.69
2022-08-03T15:52:58.100Z,26.72
2022-08-03T15:55:24.825Z,26.73
2022-08-03T15:59:09.787Z,26.66
2022-08-03T16:00:38.227Z,26.70
2022-08-03T16:03:04.847Z,26.78
2022-08-03T16:05:31.950Z,26.81
2022-08-03T16:08:04.005Z,26.85
2022-08-03T16:10:31.991Z,26.80
2022-08-03T16:12:59.007Z,26.85
2022-08-03T16:15:25.814Z,26.93
2022-08-03T16:17:52.397Z,27.01
2022-08-03T16:20:29.257Z,26.97
2022-08-03T16:23:00.328Z,26.86
2022-08-03T16:25:28.286Z,26.72
2022-08-03T16:28:03.277Z,26.69
2022-08-03T16:30:34.954Z,26.62
2022-08-03T16:33:01.558Z,26.54
2022-08-03T16:35:28.092Z,26.50
2022-08-03T16:37:56.411Z,26.46
2022-08-03T16:40:25.024Z,26.48
2022-08-03T16:42:53.094Z,26.52
2022-08-03T16:45:19.757Z,26.53
2022-08-03T16:47:46.271Z,26.43
2022-08-03T16:50:18.954Z,26.40
2022-08-03T16:52:47.687Z,26.34
2022-08-03T16:55:18.369Z,26.33
2022-08-03T16:58:03.169Z,26.35
2022-08-03T17:00:33.720Z,26.29
2022-08-03T17:03:04.198Z,26.19
2022-08-03T17:05:43.655Z,26.03
2022-08-03T17:08:14.149Z,25.86
2022-08-03T17:10:45.126Z,25.73
2022-08-03T17:13:21.798Z,25.62
2022-08-03T17:16:00.738Z,25.54
2022-08-03T17:18:34.180Z,25.38
2022-08-03T17:21:06.004Z,25.32
2022-08-03T17:23:44.449Z,25.29
2022-08-03T17:26:21.258Z,25.22
2022-08-03T17:28:57.418Z,25.14
2022-08-03T17:31:31.536Z,25.05
2022-08-03T17:34:01.905Z,24.93
2022-08-03T17:36:54.070Z,24.82
2022-08-03T17:39:17.388Z,24.75
2022-08-03T17:41:50.179Z,24.67
2022-08-03T17:44:35.156Z,24.54
2022-08-03T17:47:06.610Z,24.39
2022-08-03T17:49:33.469Z,24.27
2022-08-03T17:52:30.771Z,24.13
2022-08-03T17:55:55.443Z,24.05
2022-08-03T17:58:04.353Z,23.87
2022-08-03T18:00:51.631Z,23.76
2022-08-03T18:03:27.787Z,23.59
2022-08-03T18:06:11.219Z,23.46
2022-08-03T18:08:46.358Z,23.36
2022-08-03T18:11:16.823Z,23.25
2022-08-03T18:14:16.141Z,23.10
2022-08-03T18:16:52.311Z,22.98
2022-08-03T18:19:21.230Z,22.87
2022-08-03T18:22:09.972Z,22.73
2022-08-03T18:24:37.721Z,22.63
2022-08-03T18:27:06.513Z,22.50
2022-08-03T18:29:34.417Z,22.31
2022-08-03T18:32:03.770Z,22.23
2022-08-03T18:34:34.086Z,22.14
2022-08-03T18:37:07.384Z,22.09
2022-08-03T18:39:49.365Z,22.04
2022-08-03T18:42:19.652Z,21.94
2022-08-03T18:44:53.997Z,21.81
2022-08-03T18:50:49.513Z,21.55
2022-08-03T18:53:22.185Z,21.47
2022-08-03T18:56:22.677Z,21.32
2022-08-03T18:59:10.654Z,21.25
2022-08-03T19:02:00.496Z,21.15
2022-08-03T19:04:41.047Z,21.03
2022-08-03T19:07:09.560Z,20.95
2022-08-03T19:09:52.135Z,20.83
2022-08-03T19:12:30.863Z,20.78
2022-08-03T19:15:06.485Z,20.73
2022-08-03T19:17:50.189Z,20.66
2022-08-03T19:20:22.248Z,20.63
2022-08-03T19:22:50.946Z,20.60
2022-08-03T19:25:18.228Z,20.57
2022-08-03T19:27:48.150Z,20.48
2022-08-03T19:30:35.826Z,20.40
2022-08-03T19:33:08.215Z,20.35
2022-08-03T19:35:54.956Z,20.31
2022-08-03T19:38:28.427Z,20.24
2022-08-03T19:40:59.849Z,20.18
2022-08-03T19:43:32.928Z,20.09
2022-08-03T19:46:17.081Z,20.01
2022-08-03T19:48:54.510Z,19.95
2022-08-03T19:51:58.509Z,19.88
2022-08-03T19:54:13.936Z,19.78
2022-08-03T19:56:48.830Z,19.81
2022-08-03T19:59:16.139Z,19.73
2022-08-03T20:01:50.868Z,19.64
2022-08-03T20:04:17.986Z,19.54
2022-08-03T20:06:49.667Z,19.46
2022-08-03T20:09:18.051Z,19.38
2022-08-03T20:11:45.270Z,19.30
2022-08-03T20:14:13.193Z,19.24
2022-08-03T20:16:42.710Z,19.15
2022-08-03T20:19:14.067Z,19.16
2022-08-03T20:21:45.035Z,19.09
2022-08-03T20:24:23.025Z,19.05
2022-08-03T20:26:55.117Z,18.96
2022-08-03T20:30:04.926Z,18.86
2022-08-03T20:32:24.623Z,18.77
2022-08-03T20:34:52.003Z,18.75
2022-08-03T20:37:19.662Z,18.72
2022-08-03T20:39:49.573Z,18.72
2022-08-03T20:42:21.088Z,18.67
2022-08-03T20:45:04.554Z,18.61
2022-08-03T20:47:36.880Z,18.56
2022-08-03T20:50:17.182Z,18.49
2022-08-03T20:52:49.768Z,18.45
2022-08-03T20:55:18.697Z,18.41
2022-08-03T20:58:05.263Z,18.36
2022-08-03T21:00:31.816Z,18.30
2022-08-03T21:02:58.902Z,18.26
2022-08-03T21:05:47.770Z,18.27
2022-08-03T21:08:15.855Z,18.27
2022-08-03T21:10:42.928Z,18.25
2022-08-03T21:13:09.234Z,21.62
2022-08-03T21:13:24.040Z,18.21
2022-08-03T21:16:06.583Z,18.19
2022-08-03T21:18:46.666Z,18.13
2022-08-03T21:21:15.802Z,18.09
2022-08-03T21:23:48.856Z,17.98
2022-08-03T21:26:24.855Z,17.99
2022-08-03T21:28:54.174Z,18.00
2022-08-03T21:31:25.705Z,17.98
2022-08-03T21:33:58.004Z,17.97
2022-08-03T21:36:30.032Z,17.99
2022-08-03T21:38:57.917Z,18.00
2022-08-03T21:41:30.142Z,18.02
2022-08-03T21:43:58.049Z,18.00
2022-08-03T21:46:26.873Z,17.97
2022-08-03T21:48:56.200Z,17.92
2022-08-03T21:51:25.907Z,17.86
2022-08-03T21:54:00.278Z,17.81
2022-08-03T21:56:40.205Z,17.79
2022-08-03T21:59:08.688Z,17.73
2022-08-03T22:01:39.701Z,17.71
2022-08-03T22:04:07.342Z,17.70
2022-08-03T22:06:36.146Z,17.66
2022-08-03T22:09:05.710Z,17.64
2022-08-03T22:11:35.074Z,17.57
2022-08-03T22:14:01.816Z,17.50
2022-08-03T22:16:29.857Z,17.46
2022-08-03T22:18:56.481Z,17.45
2022-08-03T22:21:35.813Z,17.40
2022-08-03T22:24:05.121Z,17.35
2022-08-03T22:26:35.203Z,17.35
2022-08-03T22:29:07.268Z,17.35
2022-08-03T22:31:58.274Z,17.31
2022-08-03T22:34:26.399Z,17.24
2022-08-03T22:36:57.174Z,17.18
2022-08-03T22:39:28.833Z,17.11
2022-08-03T22:41:59.020Z,17.07
2022-08-03T22:44:27.507Z,17.03
2022-08-03T22:46:54.363Z,16.98
2022-08-03T22:49:22.262Z,16.96
2022-08-03T22:51:51.881Z,16.92
2022-08-03T22:54:18.948Z,16.92
2022-08-03T22:56:49.673Z,16.90
2022-08-03T22:59:40.955Z,16.88
2022-08-03T23:02:20.420Z,16.84
2022-08-03T23:04:57.005Z,16.79
2022-08-03T23:07:35.198Z,16.74
2022-08-03T23:10:04.951Z,16.72
2022-08-03T23:12:34.771Z,16.70
2022-08-03T23:15:03.869Z,16.68
2022-08-03T23:17:31.557Z,16.60
2022-08-03T23:20:07.670Z,16.57
2022-08-03T23:22:38.368Z,16.52
2022-08-03T23:25:10.374Z,16.54
2022-08-03T23:27:42.303Z,16.56
2022-08-03T23:30:10.362Z,16.51
2022-08-03T23:32:38.087Z,16.46
2022-08-03T23:36:28.014Z,16.42
2022-08-03T23:38:21.616Z,16.37
2022-08-03T23:40:51.254Z,16.32
2022-08-03T23:43:44.418Z,16.29
2022-08-03T23:46:07.763Z,16.33
2022-08-03T23:48:34.532Z,16.31
2022-08-03T23:51:09.907Z,16.25
2022-08-03T23:53:48.623Z,16.17
2022-08-03T23:56:26.371Z,16.13
2022-08-03T23:59:17.125Z,16.08
